sensor_id;sensor_type;location;lat;lon;timestamp;P1;durP1;ratioP1;P2;durP2;ratioP2
46675;SDS011;32412;51.478;5.694;2023-03-31T00:00:46;7.38;;;2.40;;
46675;SDS011;32412;51.478;5.694;2023-03-31T00:03:17;7.55;;;2.03;;
46675;SDS011;32412;51.478;5.694;2023-03-31T00:05:45;5.05;;;2.03;;
46675;SDS011;32412;51.478;5.694;2023-03-31T00:08:19;8.88;;;3.03;;
46675;SDS011;32412;51.478;5.694;2023-03-31T00:10:45;8.60;;;2.35;;
46675;SDS011;32412;51.478;5.694;2023-03-31T00:13:12;9.95;;;2.20;;
46675;SDS011;32412;51.478;5.694;2023-03-31T00:15:38;7.75;;;1.92;;
46675;SDS011;32412;51.478;5.694;2023-03-31T00:18:03;12.35;;;2.45;;
46675;SDS011;32412;51.478;5.694;2023-03-31T00:20:30;11.80;;;2.33;;
46675;SDS011;32412;51.478;5.694;2023-03-31T00:23:02;14.20;;;2.40;;
46675;SDS011;32412;51.478;5.694;2023-03-31T00:25:34;7.80;;;2.13;;
46675;SDS011;32412;51.478;5.694;2023-03-31T00:28:03;8.45;;;2.17;;
46675;SDS011;32412;51.478;5.694;2023-03-31T00:30:29;8.05;;;2.35;;
46675;SDS011;32412;51.478;5.694;2023-03-31T00:32:55;8.30;;;2.10;;
46675;SDS011;32412;51.478;5.694;2023-03-31T00:35:21;4.90;;;1.92;;
46675;SDS011;32412;51.478;5.694;2023-03-31T00:37:47;10.88;;;2.30;;
46675;SDS011;32412;51.478;5.694;2023-03-31T00:40:12;7.82;;;1.90;;
46675;SDS011;32412;51.478;5.694;2023-03-31T00:42:39;9.70;;;2.00;;
46675;SDS011;32412;51.478;5.694;2023-03-31T00:45:27;8.23;;;1.48;;
46675;SDS011;32412;51.478;5.694;2023-03-31T00:47:55;8.98;;;1.70;;
46675;SDS011;32412;51.478;5.694;2023-03-31T00:50:33;9.07;;;1.67;;
46675;SDS011;32412;51.478;5.694;2023-03-31T00:53:06;11.00;;;1.98;;
46675;SDS011;32412;51.478;5.694;2023-03-31T00:55:40;9.45;;;2.33;;
46675;SDS011;32412;51.478;5.694;2023-03-31T00:58:09;11.45;;;1.90;;
46675;SDS011;32412;51.478;5.694;2023-03-31T01:00:38;12.98;;;1.90;;
46675;SDS011;32412;51.478;5.694;2023-03-31T01:03:07;9.63;;;2.17;;
46675;SDS011;32412;51.478;5.694;2023-03-31T01:08:11;5.85;;;1.58;;
46675;SDS011;32412;51.478;5.694;2023-03-31T01:10:42;8.57;;;1.70;;
46675;SDS011;32412;51.478;5.694;2023-03-31T01:13:12;9.07;;;1.77;;
46675;SDS011;32412;51.478;5.694;2023-03-31T01:15:40;9.60;;;1.83;;
46675;SDS011;32412;51.478;5.694;2023-03-31T01:18:06;6.72;;;1.58;;
46675;SDS011;32412;51.478;5.694;2023-03-31T01:26:22;10.95;;;1.90;;
46675;SDS011;32412;51.478;5.694;2023-03-31T01:29:03;7.03;;;1.63;;
46675;SDS011;32412;51.478;5.694;2023-03-31T01:31:47;9.80;;;1.95;;
46675;SDS011;32412;51.478;5.694;2023-03-31T01:37:31;6.53;;;1.73;;
46675;SDS011;32412;51.478;5.694;2023-03-31T01:40:23;8.95;;;2.45;;
46675;SDS011;32412;51.478;5.694;2023-03-31T01:43:05;9.15;;;2.10;;
46675;SDS011;32412;51.478;5.694;2023-03-31T01:45:43;12.85;;;2.13;;
46675;SDS011;32412;51.478;5.694;2023-03-31T01:51:48;11.40;;;1.88;;
46675;SDS011;32412;51.478;5.694;2023-03-31T01:54:29;11.00;;;2.60;;
46675;SDS011;32412;51.478;5.694;2023-03-31T01:57:21;7.85;;;2.38;;
46675;SDS011;32412;51.478;5.694;2023-03-31T02:00:15;16.17;;;2.92;;
46675;SDS011;32412;51.478;5.694;2023-03-31T02:02:48;10.45;;;2.80;;
46675;SDS011;32412;51.478;5.694;2023-03-31T02:05:19;12.23;;;2.60;;
46675;SDS011;32412;51.478;5.694;2023-03-31T02:08:00;15.13;;;3.25;;
46675;SDS011;32412;51.478;5.694;2023-03-31T02:10:38;17.63;;;4.10;;
46675;SDS011;32412;51.478;5.694;2023-03-31T02:13:06;21.00;;;3.08;;
46675;SDS011;32412;51.478;5.694;2023-03-31T02:15:36;19.98;;;3.72;;
46675;SDS011;32412;51.478;5.694;2023-03-31T02:18:06;22.92;;;3.03;;
46675;SDS011;32412;51.478;5.694;2023-03-31T02:20:35;16.58;;;2.70;;
46675;SDS011;32412;51.478;5.694;2023-03-31T02:23:03;16.70;;;2.70;;
46675;SDS011;32412;51.478;5.694;2023-03-31T02:25:34;17.98;;;2.97;;
46675;SDS011;32412;51.478;5.694;2023-03-31T02:28:09;14.57;;;2.47;;
46675;SDS011;32412;51.478;5.694;2023-03-31T02:30:45;17.08;;;2.50;;
46675;SDS011;32412;51.478;5.694;2023-03-31T02:33:20;16.98;;;3.28;;
46675;SDS011;32412;51.478;5.694;2023-03-31T02:35:45;22.20;;;3.70;;
46675;SDS011;32412;51.478;5.694;2023-03-31T02:38:11;14.95;;;2.95;;
46675;SDS011;32412;51.478;5.694;2023-03-31T02:40:37;10.98;;;2.15;;
46675;SDS011;32412;51.478;5.694;2023-03-31T02:43:03;16.10;;;2.75;;
46675;SDS011;32412;51.478;5.694;2023-03-31T02:45:35;12.00;;;2.47;;
46675;SDS011;32412;51.478;5.694;2023-03-31T02:48:08;13.27;;;2.72;;
46675;SDS011;32412;51.478;5.694;2023-03-31T02:53:35;17.58;;;2.90;;
46675;SDS011;32412;51.478;5.694;2023-03-31T02:56:53;17.50;;;2.97;;
46675;SDS011;32412;51.478;5.694;2023-03-31T02:59:15;16.60;;;2.95;;
46675;SDS011;32412;51.478;5.694;2023-03-31T03:10:09;18.70;;;3.40;;
46675;SDS011;32412;51.478;5.694;2023-03-31T03:12:45;16.75;;;3.42;;
46675;SDS011;32412;51.478;5.694;2023-03-31T03:18:16;17.27;;;4.00;;
46675;SDS011;32412;51.478;5.694;2023-03-31T03:20:41;12.43;;;3.30;;
46675;SDS011;32412;51.478;5.694;2023-03-31T03:23:12;15.68;;;3.28;;
46675;SDS011;32412;51.478;5.694;2023-03-31T03:25:38;20.30;;;3.05;;
46675;SDS011;32412;51.478;5.694;2023-03-31T03:28:04;18.50;;;3.05;;
46675;SDS011;32412;51.478;5.694;2023-03-31T03:30:31;12.88;;;3.22;;
46675;SDS011;32412;51.478;5.694;2023-03-31T03:32:56;17.77;;;2.75;;
46675;SDS011;32412;51.478;5.694;2023-03-31T03:35:22;11.32;;;2.05;;
46675;SDS011;32412;51.478;5.694;2023-03-31T03:37:48;9.95;;;2.20;;
46675;SDS011;32412;51.478;5.694;2023-03-31T03:40:16;7.82;;;2.22;;
46675;SDS011;32412;51.478;5.694;2023-03-31T03:42:42;12.50;;;2.67;;
46675;SDS011;32412;51.478;5.694;2023-03-31T03:45:08;12.48;;;2.63;;
46675;SDS011;32412;51.478;5.694;2023-03-31T03:47:34;15.32;;;2.13;;
46675;SDS011;32412;51.478;5.694;2023-03-31T03:50:00;11.50;;;1.92;;
46675;SDS011;32412;51.478;5.694;2023-03-31T03:52:27;8.60;;;1.77;;
46675;SDS011;32412;51.478;5.694;2023-03-31T03:54:53;9.07;;;2.90;;
46675;SDS011;32412;51.478;5.694;2023-03-31T03:57:19;17.05;;;2.55;;
46675;SDS011;32412;51.478;5.694;2023-03-31T03:59:45;10.68;;;2.13;;
46675;SDS011;32412;51.478;5.694;2023-03-31T04:02:11;12.85;;;1.90;;
46675;SDS011;32412;51.478;5.694;2023-03-31T04:04:37;9.38;;;1.75;;
46675;SDS011;32412;51.478;5.694;2023-03-31T04:07:03;9.20;;;2.40;;
46675;SDS011;32412;51.478;5.694;2023-03-31T04:12:50;9.32;;;2.08;;
46675;SDS011;32412;51.478;5.694;2023-03-31T04:15:17;10.82;;;2.13;;
46675;SDS011;32412;51.478;5.694;2023-03-31T04:17:46;13.52;;;2.35;;
46675;SDS011;32412;51.478;5.694;2023-03-31T04:24:03;14.75;;;2.20;;
46675;SDS011;32412;51.478;5.694;2023-03-31T04:33:22;12.27;;;1.85;;
46675;SDS011;32412;51.478;5.694;2023-03-31T04:35:54;12.20;;;1.98;;
46675;SDS011;32412;51.478;5.694;2023-03-31T04:38:21;9.68;;;2.00;;
46675;SDS011;32412;51.478;5.694;2023-03-31T04:40:48;11.93;;;2.50;;
46675;SDS011;32412;51.478;5.694;2023-03-31T04:43:17;10.45;;;2.15;;
46675;SDS011;32412;51.478;5.694;2023-03-31T04:45:44;7.63;;;1.98;;
46675;SDS011;32412;51.478;5.694;2023-03-31T04:48:10;8.77;;;2.05;;
46675;SDS011;32412;51.478;5.694;2023-03-31T04:50:39;14.02;;;2.05;;
46675;SDS011;32412;51.478;5.694;2023-03-31T04:53:06;14.70;;;2.20;;
46675;SDS011;32412;51.478;5.694;2023-03-31T04:59:24;10.25;;;2.13;;
46675;SDS011;32412;51.478;5.694;2023-03-31T05:01:55;8.05;;;1.75;;
46675;SDS011;32412;51.478;5.694;2023-03-31T05:04:22;7.47;;;1.50;;
46675;SDS011;32412;51.478;5.694;2023-03-31T05:06:48;14.73;;;2.20;;
46675;SDS011;32412;51.478;5.694;2023-03-31T05:09:14;15.18;;;2.05;;
46675;SDS011;32412;51.478;5.694;2023-03-31T05:11:42;11.60;;;1.92;;
46675;SDS011;32412;51.478;5.694;2023-03-31T05:14:09;6.25;;;1.50;;
46675;SDS011;32412;51.478;5.694;2023-03-31T05:16:44;5.20;;;1.63;;
46675;SDS011;32412;51.478;5.694;2023-03-31T05:22:40;12.35;;;1.80;;
46675;SDS011;32412;51.478;5.694;2023-03-31T05:28:29;7.25;;;1.50;;
46675;SDS011;32412;51.478;5.694;2023-03-31T05:34:43;7.65;;;1.60;;
46675;SDS011;32412;51.478;5.694;2023-03-31T05:48:30;9.70;;;2.25;;
46675;SDS011;32412;51.478;5.694;2023-03-31T05:50:56;9.10;;;1.63;;
46675;SDS011;32412;51.478;5.694;2023-03-31T05:53:23;8.18;;;2.00;;
46675;SDS011;32412;51.478;5.694;2023-03-31T05:55:54;5.22;;;1.90;;
46675;SDS011;32412;51.478;5.694;2023-03-31T05:58:23;10.57;;;1.85;;
46675;SDS011;32412;51.478;5.694;2023-03-31T06:00:49;9.30;;;2.08;;
46675;SDS011;32412;51.478;5.694;2023-03-31T06:03:17;9.02;;;2.00;;
46675;SDS011;32412;51.478;5.694;2023-03-31T06:05:46;11.65;;;2.28;;
46675;SDS011;32412;51.478;5.694;2023-03-31T06:08:13;10.88;;;1.85;;
46675;SDS011;32412;51.478;5.694;2023-03-31T06:10:38;6.68;;;1.90;;
46675;SDS011;32412;51.478;5.694;2023-03-31T06:13:06;10.13;;;2.22;;
46675;SDS011;32412;51.478;5.694;2023-03-31T06:15:32;10.45;;;2.00;;
46675;SDS011;32412;51.478;5.694;2023-03-31T06:17:57;5.88;;;1.88;;
46675;SDS011;32412;51.478;5.694;2023-03-31T06:20:23;11.13;;;1.83;;
46675;SDS011;32412;51.478;5.694;2023-03-31T06:22:49;13.93;;;2.60;;
46675;SDS011;32412;51.478;5.694;2023-03-31T06:25:14;10.75;;;2.10;;
46675;SDS011;32412;51.478;5.694;2023-03-31T06:27:40;11.95;;;2.33;;
46675;SDS011;32412;51.478;5.694;2023-03-31T06:30:12;10.00;;;1.90;;
46675;SDS011;32412;51.478;5.694;2023-03-31T06:32:38;10.77;;;1.80;;
46675;SDS011;32412;51.478;5.694;2023-03-31T06:35:03;12.20;;;2.22;;
46675;SDS011;32412;51.478;5.694;2023-03-31T06:37:29;11.85;;;1.55;;
46675;SDS011;32412;51.478;5.694;2023-03-31T07:24:42;9.18;;;2.13;;
46675;SDS011;32412;51.478;5.694;2023-03-31T07:27:07;13.00;;;2.50;;
46675;SDS011;32412;51.478;5.694;2023-03-31T07:29:33;12.38;;;2.63;;
46675;SDS011;32412;51.478;5.694;2023-03-31T07:31:59;11.77;;;2.35;;
46675;SDS011;32412;51.478;5.694;2023-03-31T07:34:31;13.18;;;2.90;;
46675;SDS011;32412;51.478;5.694;2023-03-31T07:36:57;9.20;;;3.15;;
46675;SDS011;32412;51.478;5.694;2023-03-31T07:39:25;12.63;;;2.40;;
46675;SDS011;32412;51.478;5.694;2023-03-31T07:41:51;12.73;;;2.60;;
46675;SDS011;32412;51.478;5.694;2023-03-31T07:44:19;12.43;;;2.63;;
46675;SDS011;32412;51.478;5.694;2023-03-31T07:46:47;12.85;;;2.60;;
46675;SDS011;32412;51.478;5.694;2023-03-31T07:49:15;13.30;;;2.63;;
46675;SDS011;32412;51.478;5.694;2023-03-31T07:51:41;15.63;;;2.42;;
46675;SDS011;32412;51.478;5.694;2023-03-31T07:54:07;14.15;;;2.85;;
46675;SDS011;32412;51.478;5.694;2023-03-31T07:56:33;11.63;;;2.33;;
46675;SDS011;32412;51.478;5.694;2023-03-31T07:58:58;14.75;;;3.03;;
46675;SDS011;32412;51.478;5.694;2023-03-31T08:01:24;11.73;;;2.47;;
46675;SDS011;32412;51.478;5.694;2023-03-31T08:03:53;15.45;;;3.08;;
46675;SDS011;32412;51.478;5.694;2023-03-31T08:06:23;13.02;;;2.38;;
46675;SDS011;32412;51.478;5.694;2023-03-31T08:08:50;11.45;;;2.35;;
46675;SDS011;32412;51.478;5.694;2023-03-31T08:11:16;11.82;;;2.40;;
46675;SDS011;32412;51.478;5.694;2023-03-31T08:13:43;16.05;;;2.85;;
46675;SDS011;32412;51.478;5.694;2023-03-31T08:16:12;8.65;;;1.92;;
46675;SDS011;32412;51.478;5.694;2023-03-31T08:18:37;14.77;;;3.00;;
46675;SDS011;32412;51.478;5.694;2023-03-31T08:21:03;10.48;;;2.60;;
46675;SDS011;32412;51.478;5.694;2023-03-31T08:23:29;12.55;;;2.75;;
46675;SDS011;32412;51.478;5.694;2023-03-31T08:26:11;11.82;;;2.70;;
46675;SDS011;32412;51.478;5.694;2023-03-31T08:28:44;16.35;;;2.92;;
46675;SDS011;32412;51.478;5.694;2023-03-31T08:31:30;13.23;;;2.10;;
46675;SDS011;32412;51.478;5.694;2023-03-31T08:33:58;10.55;;;2.20;;
46675;SDS011;32412;51.478;5.694;2023-03-31T08:36:25;13.55;;;2.80;;
46675;SDS011;32412;51.478;5.694;2023-03-31T08:38:53;12.20;;;2.58;;
46675;SDS011;32412;51.478;5.694;2023-03-31T08:44:35;12.80;;;2.67;;
46675;SDS011;32412;51.478;5.694;2023-03-31T08:47:12;12.52;;;2.40;;
46675;SDS011;32412;51.478;5.694;2023-03-31T08:49:50;12.50;;;3.42;;
46675;SDS011;32412;51.478;5.694;2023-03-31T08:52:44;9.27;;;2.33;;
46675;SDS011;32412;51.478;5.694;2023-03-31T09:07:10;13.68;;;2.50;;
46675;SDS011;32412;51.478;5.694;2023-03-31T09:10:18;17.00;;;2.53;;
46675;SDS011;32412;51.478;5.694;2023-03-31T09:12:56;9.70;;;2.33;;
46675;SDS011;32412;51.478;5.694;2023-03-31T09:15:27;18.80;;;2.80;;
46675;SDS011;32412;51.478;5.694;2023-03-31T09:17:53;14.68;;;2.38;;
46675;SDS011;32412;51.478;5.694;2023-03-31T09:26:53;14.40;;;2.45;;
46675;SDS011;32412;51.478;5.694;2023-03-31T09:32:35;15.63;;;2.80;;
46675;SDS011;32412;51.478;5.694;2023-03-31T09:38:08;16.55;;;2.65;;
46675;SDS011;32412;51.478;5.694;2023-03-31T09:43:40;10.30;;;2.42;;
46675;SDS011;32412;51.478;5.694;2023-03-31T09:50:01;12.43;;;2.30;;
46675;SDS011;32412;51.478;5.694;2023-03-31T09:58:46;15.93;;;2.55;;
46675;SDS011;32412;51.478;5.694;2023-03-31T10:04:48;8.60;;;2.45;;
46675;SDS011;32412;51.478;5.694;2023-03-31T10:28:04;10.93;;;2.15;;
46675;SDS011;32412;51.478;5.694;2023-03-31T10:40:51;8.27;;;2.00;;
46675;SDS011;32412;51.478;5.694;2023-03-31T10:43:41;9.20;;;1.55;;
46675;SDS011;32412;51.478;5.694;2023-03-31T11:39:07;8.38;;;2.30;;
46675;SDS011;32412;51.478;5.694;2023-03-31T11:45:55;14.15;;;1.90;;
46675;SDS011;32412;51.478;5.694;2023-03-31T11:51:33;15.43;;;2.33;;
46675;SDS011;32412;51.478;5.694;2023-03-31T11:54:42;14.48;;;2.22;;
46675;SDS011;32412;51.478;5.694;2023-03-31T11:58:19;16.05;;;2.58;;
46675;SDS011;32412;51.478;5.694;2023-03-31T12:01:05;9.95;;;1.98;;
46675;SDS011;32412;51.478;5.694;2023-03-31T12:04:03;8.68;;;1.95;;
46675;SDS011;32412;51.478;5.694;2023-03-31T12:06:56;14.93;;;2.72;;
46675;SDS011;32412;51.478;5.694;2023-03-31T12:23:16;10.50;;;1.80;;
46675;SDS011;32412;51.478;5.694;2023-03-31T12:28:31;6.43;;;1.67;;
46675;SDS011;32412;51.478;5.694;2023-03-31T12:31:02;9.00;;;1.85;;
46675;SDS011;32412;51.478;5.694;2023-03-31T12:33:31;8.73;;;1.73;;
46675;SDS011;32412;51.478;5.694;2023-03-31T12:55:56;6.80;;;2.05;;
46675;SDS011;32412;51.478;5.694;2023-03-31T13:04:06;7.88;;;1.98;;
46675;SDS011;32412;51.478;5.694;2023-03-31T13:11:40;6.07;;;1.58;;
46675;SDS011;32412;51.478;5.694;2023-03-31T13:16:53;6.68;;;1.30;;
46675;SDS011;32412;51.478;5.694;2023-03-31T13:19:44;5.93;;;1.88;;
46675;SDS011;32412;51.478;5.694;2023-03-31T13:33:22;11.13;;;2.28;;
46675;SDS011;32412;51.478;5.694;2023-03-31T13:53:20;9.60;;;1.70;;
46675;SDS011;32412;51.478;5.694;2023-03-31T14:07:31;6.80;;;1.83;;
46675;SDS011;32412;51.478;5.694;2023-03-31T14:10:24;7.10;;;1.50;;
46675;SDS011;32412;51.478;5.694;2023-03-31T14:12:51;7.72;;;1.30;;
46675;SDS011;32412;51.478;5.694;2023-03-31T14:15:59;5.00;;;1.17;;
46675;SDS011;32412;51.478;5.694;2023-03-31T14:18:34;7.28;;;1.50;;
46675;SDS011;32412;51.478;5.694;2023-03-31T14:23:53;6.97;;;1.20;;
46675;SDS011;32412;51.478;5.694;2023-03-31T14:29:27;4.35;;;1.20;;
46675;SDS011;32412;51.478;5.694;2023-03-31T14:32:01;7.15;;;1.17;;
46675;SDS011;32412;51.478;5.694;2023-03-31T14:37:23;3.78;;;0.85;;
46675;SDS011;32412;51.478;5.694;2023-03-31T14:39:52;5.43;;;1.00;;
46675;SDS011;32412;51.478;5.694;2023-03-31T14:42:38;4.80;;;0.80;;
46675;SDS011;32412;51.478;5.694;2023-03-31T14:45:14;2.45;;;0.82;;
46675;SDS011;32412;51.478;5.694;2023-03-31T14:47:41;1.75;;;0.63;;
46675;SDS011;32412;51.478;5.694;2023-03-31T14:50:40;2.22;;;0.45;;
46675;SDS011;32412;51.478;5.694;2023-03-31T14:53:17;1.83;;;0.55;;
46675;SDS011;32412;51.478;5.694;2023-03-31T14:55:53;2.78;;;0.52;;
46675;SDS011;32412;51.478;5.694;2023-03-31T14:58:51;2.67;;;0.80;;
46675;SDS011;32412;51.478;5.694;2023-03-31T15:01:20;1.38;;;0.50;;
46675;SDS011;32412;51.478;5.694;2023-03-31T15:03:50;1.65;;;0.57;;
46675;SDS011;32412;51.478;5.694;2023-03-31T15:06:17;3.05;;;0.85;;
46675;SDS011;32412;51.478;5.694;2023-03-31T15:08:56;3.97;;;1.58;;
46675;SDS011;32412;51.478;5.694;2023-03-31T15:11:35;4.18;;;1.00;;
46675;SDS011;32412;51.478;5.694;2023-03-31T15:14:11;3.55;;;1.10;;
46675;SDS011;32412;51.478;5.694;2023-03-31T15:16:43;4.55;;;0.75;;
46675;SDS011;32412;51.478;5.694;2023-03-31T15:19:19;3.78;;;0.50;;
46675;SDS011;32412;51.478;5.694;2023-03-31T15:21:55;2.88;;;0.77;;
46675;SDS011;32412;51.478;5.694;2023-03-31T15:24:25;3.65;;;0.50;;
46675;SDS011;32412;51.478;5.694;2023-03-31T15:29:48;1.27;;;0.50;;
46675;SDS011;32412;51.478;5.694;2023-03-31T15:32:22;1.80;;;0.73;;
46675;SDS011;32412;51.478;5.694;2023-03-31T15:35:05;1.08;;;0.60;;
46675;SDS011;32412;51.478;5.694;2023-03-31T15:37:44;2.47;;;0.65;;
46675;SDS011;32412;51.478;5.694;2023-03-31T15:40:30;2.22;;;0.77;;
46675;SDS011;32412;51.478;5.694;2023-03-31T15:43:17;0.65;;;0.60;;
46675;SDS011;32412;51.478;5.694;2023-03-31T15:45:59;2.05;;;0.50;;
46675;SDS011;32412;51.478;5.694;2023-03-31T15:48:29;2.95;;;0.47;;
46675;SDS011;32412;51.478;5.694;2023-03-31T15:51:05;1.85;;;0.68;;
46675;SDS011;32412;51.478;5.694;2023-03-31T15:53:37;2.53;;;0.60;;
46675;SDS011;32412;51.478;5.694;2023-03-31T15:56:23;4.22;;;1.50;;
46675;SDS011;32412;51.478;5.694;2023-03-31T15:58:53;1.92;;;0.70;;
46675;SDS011;32412;51.478;5.694;2023-03-31T16:01:26;3.15;;;1.05;;
46675;SDS011;32412;51.478;5.694;2023-03-31T16:09:36;2.78;;;1.00;;
46675;SDS011;32412;51.478;5.694;2023-03-31T16:12:26;4.38;;;1.25;;
46675;SDS011;32412;51.478;5.694;2023-03-31T16:15:05;2.05;;;1.02;;
46675;SDS011;32412;51.478;5.694;2023-03-31T16:17:56;5.38;;;1.48;;
46675;SDS011;32412;51.478;5.694;2023-03-31T16:20:30;0.93;;;0.93;;
46675;SDS011;32412;51.478;5.694;2023-03-31T16:23:01;3.88;;;1.13;;
46675;SDS011;32412;51.478;5.694;2023-03-31T16:25:38;4.88;;;1.85;;
46675;SDS011;32412;51.478;5.694;2023-03-31T16:28:05;6.95;;;1.95;;
46675;SDS011;32412;51.478;5.694;2023-03-31T16:33:03;4.90;;;1.83;;
46675;SDS011;32412;51.478;5.694;2023-03-31T16:35:38;4.53;;;1.33;;
46675;SDS011;32412;51.478;5.694;2023-03-31T16:38:07;3.38;;;0.77;;
46675;SDS011;32412;51.478;5.694;2023-03-31T16:40:35;4.00;;;1.60;;
46675;SDS011;32412;51.478;5.694;2023-03-31T16:43:16;2.35;;;1.25;;
46675;SDS011;32412;51.478;5.694;2023-03-31T16:45:56;3.15;;;0.80;;
46675;SDS011;32412;51.478;5.694;2023-03-31T16:48:24;12.25;;;5.18;;
46675;SDS011;32412;51.478;5.694;2023-03-31T16:50:55;3.60;;;0.80;;
46675;SDS011;32412;51.478;5.694;2023-03-31T16:53:40;2.30;;;0.68;;
46675;SDS011;32412;51.478;5.694;2023-03-31T16:56:08;3.58;;;0.80;;
46675;SDS011;32412;51.478;5.694;2023-03-31T16:58:39;4.10;;;1.13;;
46675;SDS011;32412;51.478;5.694;2023-03-31T17:01:24;0.82;;;0.60;;
46675;SDS011;32412;51.478;5.694;2023-03-31T17:03:50;1.25;;;0.90;;
46675;SDS011;32412;51.478;5.694;2023-03-31T17:06:15;3.72;;;0.63;;
46675;SDS011;32412;51.478;5.694;2023-03-31T17:08:41;2.85;;;0.60;;
46675;SDS011;32412;51.478;5.694;2023-03-31T17:11:08;3.53;;;1.58;;
46675;SDS011;32412;51.478;5.694;2023-03-31T17:13:36;6.65;;;2.20;;
46675;SDS011;32412;51.478;5.694;2023-03-31T17:16:03;5.07;;;1.50;;
46675;SDS011;32412;51.478;5.694;2023-03-31T17:18:29;4.32;;;2.08;;
46675;SDS011;32412;51.478;5.694;2023-03-31T17:21:09;5.68;;;1.15;;
46675;SDS011;32412;51.478;5.694;2023-03-31T17:23:37;2.40;;;0.85;;
46675;SDS011;32412;51.478;5.694;2023-03-31T17:26:04;4.22;;;0.93;;
46675;SDS011;32412;51.478;5.694;2023-03-31T17:28:33;2.35;;;0.90;;
46675;SDS011;32412;51.478;5.694;2023-03-31T17:31:14;5.55;;;0.98;;
46675;SDS011;32412;51.478;5.694;2023-03-31T17:33:45;1.67;;;0.70;;
46675;SDS011;32412;51.478;5.694;2023-03-31T17:36:11;0.68;;;0.40;;
46675;SDS011;32412;51.478;5.694;2023-03-31T17:38:37;1.55;;;0.95;;
46675;SDS011;32412;51.478;5.694;2023-03-31T17:41:08;2.85;;;0.90;;
46675;SDS011;32412;51.478;5.694;2023-03-31T17:43:35;4.00;;;1.13;;
46675;SDS011;32412;51.478;5.694;2023-03-31T17:52:08;3.53;;;0.60;;
46675;SDS011;32412;51.478;5.694;2023-03-31T17:54:35;2.03;;;0.80;;
46675;SDS011;32412;51.478;5.694;2023-03-31T17:57:00;6.28;;;0.85;;
46675;SDS011;32412;51.478;5.694;2023-03-31T17:59:27;2.65;;;0.80;;
46675;SDS011;32412;51.478;5.694;2023-03-31T18:01:53;1.92;;;1.00;;
46675;SDS011;32412;51.478;5.694;2023-03-31T18:04:19;2.85;;;0.60;;
46675;SDS011;32412;51.478;5.694;2023-03-31T18:06:45;6.38;;;0.77;;
46675;SDS011;32412;51.478;5.694;2023-03-31T18:09:12;5.88;;;1.00;;
46675;SDS011;32412;51.478;5.694;2023-03-31T18:11:38;3.15;;;1.10;;
46675;SDS011;32412;51.478;5.694;2023-03-31T18:14:05;3.80;;;1.00;;
46675;SDS011;32412;51.478;5.694;2023-03-31T18:16:31;5.78;;;1.27;;
46675;SDS011;32412;51.478;5.694;2023-03-31T18:19:01;5.05;;;1.23;;
46675;SDS011;32412;51.478;5.694;2023-03-31T18:21:27;3.75;;;0.63;;
46675;SDS011;32412;51.478;5.694;2023-03-31T18:23:52;1.65;;;0.75;;
46675;SDS011;32412;51.478;5.694;2023-03-31T18:26:21;6.63;;;0.90;;
46675;SDS011;32412;51.478;5.694;2023-03-31T18:28:48;3.42;;;0.80;;
46675;SDS011;32412;51.478;5.694;2023-03-31T18:31:14;3.13;;;0.90;;
46675;SDS011;32412;51.478;5.694;2023-03-31T18:33:40;3.28;;;1.10;;
46675;SDS011;32412;51.478;5.694;2023-03-31T18:36:18;4.55;;;1.05;;
46675;SDS011;32412;51.478;5.694;2023-03-31T18:38:46;5.95;;;1.00;;
46675;SDS011;32412;51.478;5.694;2023-03-31T18:41:13;4.25;;;1.05;;
46675;SDS011;32412;51.478;5.694;2023-03-31T18:43:43;4.90;;;1.02;;
46675;SDS011;32412;51.478;5.694;2023-03-31T18:46:11;4.68;;;1.05;;
46675;SDS011;32412;51.478;5.694;2023-03-31T18:48:37;2.90;;;0.85;;
46675;SDS011;32412;51.478;5.694;2023-03-31T18:51:04;5.10;;;1.02;;
46675;SDS011;32412;51.478;5.694;2023-03-31T18:53:29;5.32;;;1.13;;
46675;SDS011;32412;51.478;5.694;2023-03-31T18:55:56;5.88;;;1.00;;
46675;SDS011;32412;51.478;5.694;2023-03-31T18:58:23;12.18;;;1.58;;
46675;SDS011;32412;51.478;5.694;2023-03-31T19:00:52;3.88;;;1.05;;
46675;SDS011;32412;51.478;5.694;2023-03-31T19:03:18;5.30;;;1.00;;
46675;SDS011;32412;51.478;5.694;2023-03-31T19:05:44;2.88;;;1.17;;
46675;SDS011;32412;51.478;5.694;2023-03-31T19:08:10;1.88;;;0.85;;
46675;SDS011;32412;51.478;5.694;2023-03-31T19:10:35;7.60;;;1.25;;
46675;SDS011;32412;51.478;5.694;2023-03-31T19:13:03;4.28;;;1.30;;
46675;SDS011;32412;51.478;5.694;2023-03-31T19:15:30;8.15;;;1.63;;
46675;SDS011;32412;51.478;5.694;2023-03-31T19:17:57;8.43;;;1.20;;
46675;SDS011;32412;51.478;5.694;2023-03-31T19:20:22;4.97;;;1.00;;
46675;SDS011;32412;51.478;5.694;2023-03-31T19:22:49;3.75;;;1.00;;
46675;SDS011;32412;51.478;5.694;2023-03-31T19:25:17;6.07;;;1.15;;
46675;SDS011;32412;51.478;5.694;2023-03-31T19:27:44;6.55;;;1.30;;
46675;SDS011;32412;51.478;5.694;2023-03-31T19:30:17;3.17;;;1.30;;
46675;SDS011;32412;51.478;5.694;2023-03-31T19:32:45;2.75;;;0.70;;
46675;SDS011;32412;51.478;5.694;2023-03-31T19:35:12;5.30;;;1.20;;
46675;SDS011;32412;51.478;5.694;2023-03-31T19:37:39;5.40;;;1.42;;
46675;SDS011;32412;51.478;5.694;2023-03-31T19:40:05;4.65;;;1.30;;
46675;SDS011;32412;51.478;5.694;2023-03-31T19:42:33;3.08;;;1.10;;
46675;SDS011;32412;51.478;5.694;2023-03-31T19:44:58;4.28;;;1.05;;
46675;SDS011;32412;51.478;5.694;2023-03-31T19:47:24;4.38;;;1.30;;
46675;SDS011;32412;51.478;5.694;2023-03-31T19:49:50;3.53;;;1.27;;
46675;SDS011;32412;51.478;5.694;2023-03-31T19:52:16;4.60;;;1.33;;
46675;SDS011;32412;51.478;5.694;2023-03-31T19:54:42;3.35;;;1.27;;
46675;SDS011;32412;51.478;5.694;2023-03-31T19:57:08;5.85;;;1.45;;
46675;SDS011;32412;51.478;5.694;2023-03-31T19:59:34;4.40;;;1.38;;
46675;SDS011;32412;51.478;5.694;2023-03-31T20:02:00;6.10;;;1.42;;
46675;SDS011;32412;51.478;5.694;2023-03-31T20:04:29;4.40;;;1.35;;
46675;SDS011;32412;51.478;5.694;2023-03-31T20:06:55;3.95;;;1.65;;
46675;SDS011;32412;51.478;5.694;2023-03-31T20:09:21;4.47;;;1.23;;
46675;SDS011;32412;51.478;5.694;2023-03-31T20:11:49;5.13;;;1.33;;
46675;SDS011;32412;51.478;5.694;2023-03-31T20:14:23;3.70;;;1.58;;
46675;SDS011;32412;51.478;5.694;2023-03-31T20:16:48;5.25;;;1.55;;
46675;SDS011;32412;51.478;5.694;2023-03-31T20:19:16;5.55;;;1.42;;
46675;SDS011;32412;51.478;5.694;2023-03-31T20:21:43;6.85;;;1.58;;
46675;SDS011;32412;51.478;5.694;2023-03-31T20:24:14;4.93;;;1.30;;
46675;SDS011;32412;51.478;5.694;2023-03-31T20:26:41;6.95;;;1.80;;
46675;SDS011;32412;51.478;5.694;2023-03-31T20:29:07;6.57;;;1.50;;
46675;SDS011;32412;51.478;5.694;2023-03-31T20:31:34;7.97;;;1.75;;
46675;SDS011;32412;51.478;5.694;2023-03-31T20:34:02;8.85;;;1.67;;
46675;SDS011;32412;51.478;5.694;2023-03-31T20:36:30;10.00;;;2.45;;
46675;SDS011;32412;51.478;5.694;2023-03-31T20:38:56;6.18;;;1.63;;
46675;SDS011;32412;51.478;5.694;2023-03-31T20:41:24;6.40;;;1.70;;
46675;SDS011;32412;51.478;5.694;2023-03-31T20:43:52;6.38;;;1.58;;
46675;SDS011;32412;51.478;5.694;2023-03-31T20:46:19;13.20;;;2.20;;
46675;SDS011;32412;51.478;5.694;2023-03-31T20:48:46;7.10;;;1.60;;
46675;SDS011;32412;51.478;5.694;2023-03-31T20:51:16;9.20;;;2.17;;
46675;SDS011;32412;51.478;5.694;2023-03-31T20:53:45;6.68;;;1.73;;
46675;SDS011;32412;51.478;5.694;2023-03-31T20:56:21;7.32;;;1.67;;
46675;SDS011;32412;51.478;5.694;2023-03-31T20:58:49;11.88;;;2.03;;
46675;SDS011;32412;51.478;5.694;2023-03-31T21:01:15;8.50;;;2.05;;
46675;SDS011;32412;51.478;5.694;2023-03-31T21:03:44;8.18;;;2.10;;
46675;SDS011;32412;51.478;5.694;2023-03-31T21:06:11;9.23;;;2.13;;
46675;SDS011;32412;51.478;5.694;2023-03-31T21:08:41;13.18;;;2.80;;
46675;SDS011;32412;51.478;5.694;2023-03-31T21:17:35;7.55;;;1.67;;